Time;durP1;ratioP1;P1;durP2;ratioP2;P2;SDS_P1;SDS_P2;PMS_P1;PMS_P2;Temp;Humidity;BMP_temperature;BMP_pressure;BME280_temperature;BME280_humidity;BME280_pressure;Samples;Min_cycle;Max_cycle;Signal;HPM_P1;HPM_P2
2022/05/19 00:01:41;;;;;;;23.87;14.47;;;;;;;30.55;56.65;101640.19;5050085;28;20048;-53
2022/05/19 00:04:07;;;;;;;;;;;;;;;30.69;56.12;101631.88;5055174;28;20057;-53
2022/05/19 00:06:33;;;;;;;24.03;14.80;;;;;;;30.68;55.63;101628.31;5058464;28;19936;-54
2022/05/19 00:08:58;;;;;;;23.95;14.30;;;;;;;30.51;56.06;101637.22;5054845;28;20101;-52
2022/05/19 00:11:28;;;;;;;29.33;15.48;;;;;;;30.65;55.25;101612.34;5054636;28;20049;-52
2022/05/19 00:13:54;;;;;;;26.40;14.90;;;;;;;30.65;54.88;101614.31;5054791;28;20034;-53
2022/05/19 00:16:19;;;;;;;27.00;15.25;;;;;;;30.47;55.79;101605.88;5054479;28;20037;-52
2022/05/19 00:18:45;;;;;;;31.35;16.15;;;;;;;29.59;59.05;101602.28;5054599;28;20046;-54
2022/05/19 00:21:10;;;;;;;28.30;15.23;;;;;;;29.80;59.29;101610.13;5054961;28;20052;-57
2022/05/19 00:23:36;;;;;;;29.35;15.75;;;;;;;29.40;61.22;101600.41;5057538;28;20036;-51
2022/05/19 00:26:02;;;;;;;27.23;15.43;;;;;;;29.37;61.40;101592.75;5054741;28;20039;-53
2022/05/19 00:28:27;;;;;;;;;;;;;;;29.16;62.12;101592.34;5059641;28;20033;-54
2022/05/19 00:30:53;;;;;;;29.40;15.97;;;;;;;29.45;60.94;101585.75;5054569;28;19919;-52
2022/05/19 00:33:19;;;;;;;30.35;17.13;;;;;;;29.60;60.87;101582.69;5060294;28;20041;-52
2022/05/19 00:35:44;;;;;;;25.15;16.05;;;;;;;29.45;61.48;101585.75;5054492;28;20037;-51
2022/05/19 00:38:10;;;;;;;26.38;16.60;;;;;;;30.11;59.52;101591.00;5058470;28;20037;-52
2022/05/19 00:40:36;;;;;;;27.55;17.55;;;;;;;30.44;56.72;101579.72;5055606;28;20101;-52
2022/05/19 00:43:02;;;;;;;36.17;17.63;;;;;;;30.21;57.41;101578.06;5053968;28;20056;-51
2022/05/19 00:45:39;;;;;;;28.03;17.53;;;;;;;29.26;61.34;101580.31;5056731;28;20042;-48
2022/05/19 00:48:14;;;;;;;31.95;17.52;;;;;;;29.86;59.99;101579.38;5055873;28;20120;-52
2022/05/19 00:50:51;;;;;;;32.80;17.57;;;;;;;29.81;59.58;101582.25;5054156;28;20060;-54
2022/05/19 00:53:42;;;;;;;44.07;16.53;;;;;;;29.82;59.72;101574.78;5057813;28;20033;-52
2022/05/19 00:56:17;;;;;;;27.90;16.73;;;;;;;29.70;61.14;101575.31;5054221;28;20037;-48
2022/05/19 00:59:10;;;;;;;28.63;17.70;;;;;;;29.68;61.58;101574.81;5054286;28;20071;-52
2022/05/19 01:01:39;;;;;;;31.13;17.17;;;;;;;29.68;61.49;101567.38;5053592;28;20058;-49
2022/05/19 01:04:36;;;;;;;28.00;17.07;;;;;;;29.75;62.10;101566.94;5054306;28;20056;-50
2022/05/19 01:07:06;;;;;;;30.13;16.15;;;;;;;29.66;62.29;101566.03;5049024;28;20110;-50
2022/05/19 01:09:35;;;;;;;35.13;17.77;;;;;;;29.50;63.20;101557.28;5053301;28;20033;-52
2022/05/19 01:12:04;;;;;;;31.03;16.20;;;;;;;29.58;62.80;101553.81;5055083;28;20021;-51
2022/05/19 01:14:31;;;;;;;32.33;17.70;;;;;;;30.27;58.18;101543.75;5053900;28;20073;-52
2022/05/19 01:16:57;;;;;;;28.50;17.67;;;;;;;29.87;61.80;101552.63;5055703;28;20037;-56
2022/05/19 01:19:38;;;;;;;27.15;17.15;;;;;;;29.62;63.17;101543.78;5055536;28;20064;-50
2022/05/19 01:22:38;;;;;;;34.40;16.97;;;;;;;29.67;63.42;101534.59;5048243;28;20068;-50
2022/05/19 01:25:08;;;;;;;25.83;16.10;;;;;;;29.26;66.38;101534.31;5053224;28;20049;-51
2022/05/19 01:27:35;;;;;;;26.40;17.07;;;;;;;29.32;66.02;101535.84;5056991;28;20097;-51
2022/05/19 01:30:03;;;;;;;32.43;17.23;;;;;;;29.22;66.47;101524.22;5054945;28;20084;-51
2022/05/19 01:32:30;;;;;;;31.27;17.00;;;;;;;29.27;66.90;101511.16;5053678;28;20033;-48
2022/05/19 01:34:57;;;;;;;32.13;17.60;;;;;;;29.23;67.06;101509.34;5054166;28;20033;-49
2022/05/19 01:37:25;;;;;;;29.03;17.67;;;;;;;29.34;67.06;101503.31;5063774;28;20033;-53
2022/05/19 01:40:14;;;;;;;28.70;18.63;;;;;;;29.39;66.72;101496.06;5050762;28;20033;-53
2022/05/19 01:42:53;;;;;;;32.00;16.98;;;;;;;29.22;67.09;101491.19;5052423;28;20037;-55
2022/05/19 01:46:09;;;;;;;32.73;18.67;;;;;;;29.28;67.96;101493.50;5058535;28;20038;-53
2022/05/19 01:48:52;;;;;;;29.13;16.93;;;;;;;29.21;68.90;101501.38;5050120;28;20049;-54
2022/05/19 01:51:32;;;;;;;32.80;18.73;;;;;;;29.16;69.29;101501.47;5063569;28;20049;-51
2022/05/19 01:54:10;;;;;;;31.80;18.97;;;;;;;29.40;67.87;101508.69;5059302;28;20060;-52
2022/05/19 01:56:43;;;;;;;30.10;18.70;;;;;;;29.29;68.42;101497.88;5061250;28;20053;-54
2022/05/19 01:59:11;;;;;;;30.03;19.37;;;;;;;29.83;65.26;101497.31;5057249;28;20037;-54
2022/05/19 02:01:42;;;;;;;33.50;20.00;;;;;;;29.48;66.20;101502.47;5051712;28;20032;-54
2022/05/19 02:04:19;;;;;;;28.43;18.80;;;;;;;29.53;66.29;101501.56;5066344;28;20111;-54
2022/05/19 02:06:49;;;;;;;38.03;20.63;;;;;;;29.58;66.52;101502.28;5056727;28;20104;-56
2022/05/19 02:09:29;;;;;;;37.03;21.03;;;;;;;29.43;67.98;101503.44;5063421;28;20056;-54
2022/05/19 02:11:56;;;;;;;35.17;20.60;;;;;;;29.28;66.75;101501.75;5056686;28;20025;-53
2022/05/19 02:14:55;;;;;;;35.47;20.70;;;;;;;29.59;66.05;101490.13;5056872;28;20043;-54
2022/05/19 02:17:25;;;;;;;37.30;21.57;;;;;;;29.32;67.63;101477.19;5050199;28;20057;-53
2022/05/19 02:19:56;;;;;;;33.23;20.07;;;;;;;29.20;68.99;101474.94;5059008;28;20026;-53
2022/05/19 02:22:29;;;;;;;34.27;21.93;;;;;;;29.10;70.95;101469.66;5056720;28;20069;-50
2022/05/19 02:25:01;;;;;;;36.07;20.87;;;;;;;29.19;70.29;101476.06;5059776;28;20090;-52
2022/05/19 02:27:50;;;;;;;33.93;20.73;;;;;;;29.05;71.29;101487.09;5058417;28;20040;-53
2022/05/19 02:30:19;;;;;;;39.53;22.37;;;;;;;29.16;70.26;101483.00;5051113;28;20030;-54
2022/05/19 02:32:45;;;;;;;43.13;22.70;;;;;;;28.94;72.49;101485.66;5061296;28;20056;-50
2022/05/19 02:35:11;;;;;;;;;;;;;;;28.98;72.25;101484.75;5057020;28;20116;-50
2022/05/19 02:37:38;;;;;;;;;;;;;;;28.92;72.87;101483.22;5057024;28;20007;-51
2022/05/19 02:40:06;;;;;;;40.10;23.05;;;;;;;28.33;76.34;101489.19;5063105;28;19912;-50
2022/05/19 02:42:32;;;;;;;38.37;24.43;;;;;;;28.48;76.33;101501.88;5056280;28;20060;-52
2022/05/19 02:44:57;;;;;;;34.28;22.20;;;;;;;28.72;74.57;101501.72;5056870;28;20101;-56
2022/05/19 02:47:23;;;;;;;37.75;22.55;;;;;;;28.62;75.19;101491.72;5056668;28;20045;-51
2022/05/19 02:49:48;;;;;;;35.20;22.95;;;;;;;28.53;76.33;101501.81;5055984;28;20025;-53
2022/05/19 02:52:15;;;;;;;;;;;;;;;28.34;78.26;101499.06;5056543;28;20109;-48
2022/05/19 02:54:40;;;;;;;31.77;20.53;;;;;;;28.14;79.91;101509.28;5056229;28;19913;-55
2022/05/19 02:57:06;;;;;;;36.08;21.90;;;;;;;28.70;76.86;101520.47;5059304;28;20034;-53
2022/05/19 02:59:32;;;;;;;37.40;20.70;;;;;;;28.72;76.46;101555.97;5058479;28;20037;-49
2022/05/19 03:01:57;;;;;;;42.97;20.92;;;;;;;27.08;92.54;101719.81;5057314;28;20051;-53
2022/05/19 03:04:23;;;;;;;43.55;23.15;;;;;;;27.45;93.95;101688.16;5055994;28;20061;-54
2022/05/19 03:06:48;;;;;;;42.60;23.83;;;;;;;28.80;81.29;101684.63;5055920;28;20037;-54
2022/05/19 03:09:13;;;;;;;46.40;23.83;;;;;;;27.83;88.36;101674.63;5061396;28;20072;-51
2022/05/19 03:11:39;;;;;;;46.40;26.48;;;;;;;28.21;85.77;101662.09;5056554;28;20037;-55
2022/05/19 03:14:05;;;;;;;44.97;24.20;;;;;;;28.62;81.01;101656.00;5058821;28;20088;-54
2022/05/19 03:16:31;;;;;;;44.28;23.63;;;;;;;28.61;81.01;101654.38;5056459;28;20044;-49
2022/05/19 03:18:56;;;;;;;37.60;22.65;;;;;;;28.70;79.78;101643.47;5055685;28;20076;-50
2022/05/19 03:21:22;;;;;;;34.30;20.83;;;;;;;28.67;78.99;101642.16;5056721;28;20056;-51
2022/05/19 03:23:47;;;;;;;42.13;20.50;;;;;;;28.67;84.39;101657.84;5057766;28;20336;-50
2022/05/19 03:26:13;;;;;;;30.00;17.05;;;;;;;28.98;77.23;101647.16;5055459;28;20033;-54
2022/05/19 03:28:38;;;;;;;28.15;15.77;;;;;;;28.87;76.90;101651.22;5074735;28;20097;-52
2022/05/19 03:31:04;;;;;;;25.50;13.45;;;;;;;29.25;72.47;101648.34;5055552;28;20045;-53
2022/05/19 03:33:29;;;;;;;19.90;9.23;;;;;;;28.77;73.07;101650.22;5059464;28;20056;-52
2022/05/19 03:36:00;;;;;;;13.48;7.35;;;;;;;28.52;76.47;101667.16;5055234;28;20041;-55
2022/05/19 03:38:26;;;;;;;13.63;7.00;;;;;;;28.94;74.91;101668.16;5057102;28;20036;-54
2022/05/19 03:40:53;;;;;;;15.30;6.43;;;;;;;28.53;75.31;101664.09;5061110;28;20044;-51
2022/05/19 03:43:19;;;;;;;24.52;7.38;;;;;;;29.00;72.04;101666.16;5055084;28;20041;-51
2022/05/19 03:45:45;;;;;;;23.13;6.88;;;;;;;28.66;77.56;101662.53;5054899;28;20097;-51
2022/05/19 03:48:12;;;;;;;13.20;3.60;;;;;;;28.25;79.95;101649.38;5055042;28;20025;-53
2022/05/19 03:50:38;;;;;;;6.82;2.92;;;;;;;28.15;82.56;101653.91;5054854;28;20056;-52
2022/05/19 03:53:04;;;;;;;12.97;5.73;;;;;;;28.02;82.03;101649.09;5056494;28;20041;-52
2022/05/19 03:55:30;;;;;;;;;;;;;;;29.17;75.40;101646.31;5057194;28;20037;-52
2022/05/19 03:57:56;;;;;;;29.50;13.47;;;;;;;29.15;73.29;101662.31;5055192;28;19916;-53
2022/05/19 04:00:22;;;;;;;14.05;4.85;;;;;;;28.63;77.29;101668.63;5054103;28;20060;-49
2022/05/19 04:02:47;;;;;;;21.08;9.55;;;;;;;28.30;77.88;101665.81;5054750;28;20037;-50
2022/05/19 04:05:14;;;;;;;10.50;4.97;;;;;;;28.54;78.37;101671.25;5054853;28;20041;-55
2022/05/19 04:07:41;;;;;;;4.93;2.13;;;;;;;28.65;77.58;101674.66;5057752;28;20021;-51
2022/05/19 04:10:08;;;;;;;50.57;21.03;;;;;;;28.99;72.85;101659.81;5056513;28;20037;-53
2022/05/19 04:12:35;;;;;;;27.43;13.00;;;;;;;28.55;77.75;101645.38;5054793;28;20079;-50
2022/05/19 04:15:03;;;;;;;10.32;5.45;;;;;;;28.83;77.08;101637.25;5054574;28;20044;-50
2022/05/19 04:17:33;;;;;;;85.23;46.03;;;;;;;29.08;76.95;101637.13;5054448;28;20060;-50
2022/05/19 04:20:04;;;;;;;25.13;14.00;;;;;;;29.03;74.78;101636.06;5054606;28;20029;-55
2022/05/19 04:22:30;;;;;;;121.10;59.87;;;;;;;29.24;75.83;101637.66;5059222;28;20040;-53
2022/05/19 04:24:56;;;;;;;;;;;;;;;28.76;76.45;101647.78;5054974;28;20068;-52
2022/05/19 04:27:22;;;;;;;34.00;19.10;;;;;;;28.84;74.73;101649.88;5059751;28;19916;-50
2022/05/19 04:29:48;;;;;;;52.15;27.30;;;;;;;29.22;73.28;101657.22;5058695;28;20020;-53
2022/05/19 04:32:16;;;;;;;35.27;18.00;;;;;;;29.27;73.77;101681.91;5056298;28;20048;-54
2022/05/19 04:34:42;;;;;;;4.97;2.70;;;;;;;29.27;73.87;101681.09;5054811;28;20033;-53
2022/05/19 04:37:08;;;;;;;10.10;3.50;;;;;;;28.85;74.24;101672.72;5054273;28;20089;-51
2022/05/19 04:39:34;;;;;;;6.22;3.00;;;;;;;28.53;74.21;101677.03;5055609;28;20033;-50
2022/05/19 04:42:05;;;;;;;6.88;2.53;;;;;;;29.07;73.66;101687.78;5054537;28;20041;-51
2022/05/19 04:44:31;;;;;;;4.13;2.30;;;;;;;28.56;77.46;101690.19;5054284;28;20037;-53
2022/05/19 04:46:56;;;;;;;5.32;2.63;;;;;;;28.88;75.92;101691.41;5054133;28;20039;-50
2022/05/19 04:49:22;;;;;;;6.63;3.20;;;;;;;28.02;83.27;101676.59;5054896;28;20065;-53
2022/05/19 04:51:47;;;;;;;5.30;2.85;;;;;;;28.27;81.61;101680.97;5057254;28;20045;-50
2022/05/19 04:54:13;;;;;;;6.63;2.65;;;;;;;28.41;78.89;101688.47;5058888;28;20057;-51
2022/05/19 04:56:42;;;;;;;10.75;3.42;;;;;;;28.06;83.33;101680.38;5054226;28;20044;-52
2022/05/19 04:59:13;;;;;;;8.13;3.00;;;;;;;27.60;87.09;101692.75;5054220;28;20045;-53
2022/05/19 05:01:48;;;;;;;13.07;3.37;;;;;;;28.24;87.65;101700.00;5056466;28;20037;-51
2022/05/19 05:04:15;;;;;;;15.37;4.27;;;;;;;28.24;88.83;101705.50;5053247;28;20029;-52
2022/05/19 05:06:41;;;;;;;11.83;4.53;;;;;;;27.94;98.09;101708.28;5054067;28;20068;-55
2022/05/19 05:09:07;;;;;;;;;;;;;;;27.82;98.61;101694.97;5060258;28;20045;-51
2022/05/19 05:11:33;;;;;;;13.77;4.67;;;;;;;28.14;94.13;101690.75;5058347;28;19914;-53
2022/05/19 05:13:59;;;;;;;9.32;4.40;;;;;;;28.26;98.62;101692.25;5070577;28;20053;-54
2022/05/19 05:16:24;;;;;;;8.82;3.58;;;;;;;27.94;100.00;101672.56;5069640;28;20041;-49
2022/05/19 05:18:50;;;;;;;14.65;4.28;;;;;;;28.02;97.52;101674.66;5064841;28;20041;-53
2022/05/19 05:21:15;;;;;;;9.93;4.40;;;;;;;28.56;95.06;101676.44;5065022;28;20048;-52
2022/05/19 05:23:41;;;;;;;10.23;4.22;;;;;;;28.55;92.44;101661.03;5072973;28;20093;-53
2022/05/19 05:26:07;;;;;;;;;;;;;;;28.45;93.09;101657.34;5063716;28;20045;-54
2022/05/19 05:28:34;;;;;;;8.27;4.50;;;;;;;28.66;90.76;101650.69;5061047;28;19913;-53
2022/05/19 05:31:00;;;;;;;9.43;4.57;;;;;;;28.67;92.92;101633.91;5069718;28;20498;-55
2022/05/19 05:33:26;;;;;;;24.80;5.03;;;;;;;28.51;95.73;101627.00;5066017;28;20034;-50
2022/05/19 05:35:52;;;;;;;;;;;;;;;28.29;97.77;101642.16;5067909;28;20072;-54
2022/05/19 05:38:17;;;;;;;9.20;4.67;;;;;;;28.34;100.00;101600.84;5065382;28;19921;-54
2022/05/19 05:40:45;;;;;;;9.33;4.43;;;;;;;27.64;100.00;101627.88;5069782;28;20089;-51
2022/05/19 05:43:14;;;;;;;7.60;4.07;;;;;;;27.00;100.00;101653.47;5069961;28;20044;-54
2022/05/19 05:45:43;;;;;;;13.50;6.80;;;;;;;27.39;100.00;101642.66;5070358;28;20051;-50
2022/05/19 05:48:09;;;;;;;12.97;6.40;;;;;;;27.52;100.00;101595.31;5067053;28;20044;-53
2022/05/19 05:50:35;;;;;;;15.57;7.05;;;;;;;27.72;100.00;101533.78;5070606;28;20068;-51
2022/05/19 05:53:01;;;;;;;12.33;6.10;;;;;;;26.55;100.00;101532.00;5066691;28;20048;-53
2022/05/19 05:55:27;;;;;;;13.55;5.97;;;;;;;26.49;100.00;101523.81;5064696;28;20033;-53
2022/05/19 05:57:53;;;;;;;;;;;;;;;26.98;100.00;101523.94;5046181;28;20057;-49
2022/05/19 06:00:19;;;;;;;12.03;5.50;;;;;;;27.56;100.00;101516.69;5066228;28;19924;-55
2022/05/19 06:02:44;;;;;;;;;;;;;;;27.15;100.00;101478.72;5063208;28;20037;-50
2022/05/19 06:05:12;;;;;;;10.17;4.47;;;;;;;27.29;100.00;101467.84;5049822;28;19920;-55
2022/05/19 06:07:38;;;;;;;9.93;4.50;;;;;;;27.40;100.00;101446.56;5056188;28;20425;-53
2022/05/19 06:10:04;;;;;;;;;;;;;;;27.84;100.00;101477.59;5060878;28;20033;-51
2022/05/19 06:12:29;;;;;;;10.53;4.67;;;;;;;27.95;100.00;101472.75;5057230;28;19912;-55
2022/05/19 06:14:56;;;;;;;9.90;5.05;;;;;;;27.84;100.00;101488.59;5056630;28;20101;-52
2022/05/19 06:17:24;;;;;;;10.27;4.33;;;;;;;27.70;100.00;101538.75;5059755;28;20033;-50
2022/05/19 06:19:49;;;;;;;12.30;5.13;;;;;;;25.92;100.00;101565.28;5054412;28;20101;-53
2022/05/19 06:22:15;;;;;;;37.50;19.42;;;;;;;26.62;100.00;101554.44;5055475;28;20038;-51
2022/05/19 06:24:41;;;;;;;10.40;5.40;;;;;;;27.00;100.00;101562.06;5054993;28;20049;-52
2022/05/19 06:27:06;;;;;;;16.27;9.20;;;;;;;26.65;100.00;101556.59;5054914;28;20045;-49
2022/05/19 06:29:32;;;;;;;11.75;4.57;;;;;;;28.27;100.00;101554.50;5055219;28;20101;-51
2022/05/19 06:31:57;;;;;;;7.65;4.47;;;;;;;28.03;100.00;101552.63;5055459;28;20040;-54
2022/05/19 06:34:23;;;;;;;7.72;3.63;;;;;;;28.19;100.00;101528.47;5054245;28;20044;-53
2022/05/19 06:36:48;;;;;;;10.30;4.03;;;;;;;27.57;100.00;101545.81;5055496;28;20041;-55
2022/05/19 06:39:16;;;;;;;7.72;4.47;;;;;;;27.44;100.00;101543.72;5055580;28;20038;-56
2022/05/19 06:42:00;;;;;;;5.77;3.67;;;;;;;27.55;100.00;101548.03;5060277;28;20057;-53
2022/05/19 06:44:29;;;;;;;5.67;3.43;;;;;;;27.63;100.00;101543.81;5058097;28;20033;-54
2022/05/19 06:46:56;;;;;;;9.17;4.83;;;;;;;27.72;100.00;101557.72;5059138;28;20033;-54
2022/05/19 06:49:22;;;;;;;12.07;3.50;;;;;;;27.40;100.00;101565.47;5059671;28;20068;-54
2022/05/19 06:51:47;;;;;;;5.00;3.15;;;;;;;27.11;100.00;101560.88;5056896;28;20044;-52
2022/05/19 06:54:13;;;;;;;7.45;3.40;;;;;;;27.39;100.00;101555.63;5057193;28;20068;-51
2022/05/19 06:56:39;;;;;;;6.50;3.30;;;;;;;27.43;100.00;101553.91;5055070;28;20041;-55
2022/05/19 06:59:05;;;;;;;6.20;3.95;;;;;;;27.45;100.00;101559.09;5055804;28;20041;-56
2022/05/19 07:01:31;;;;;;;;;;;;;;;27.71;100.00;101559.63;5055799;28;20040;-55
2022/05/19 07:03:57;;;;;;;9.20;4.47;;;;;;;28.66;100.00;101552.47;5054383;28;19992;-56
2022/05/19 07:06:23;;;;;;;;;;;;;;;28.93;100.00;101548.16;5055774;28;20041;-53
2022/05/19 07:08:49;;;;;;;10.03;5.20;;;;;;;28.85;100.00;101555.19;5055373;28;19912;-55
2022/05/19 07:11:24;;;;;;;;;;;;;;;28.24;100.00;101551.50;5055503;28;20029;-54
2022/05/19 07:13:57;;;;;;;8.80;5.50;;;;;;;28.99;100.00;101546.16;5054390;28;19912;-56
2022/05/19 07:16:23;;;;;;;10.20;6.27;;;;;;;29.12;100.00;101553.59;5055109;28;20105;-58
2022/05/19 07:18:49;;;;;;;12.60;6.50;;;;;;;29.39;97.44;101559.41;5070467;28;20060;-52
2022/05/19 07:21:17;;;;;;;;;;;;;;;28.80;94.77;101560.78;5054318;28;20075;-56
2022/05/19 07:23:44;;;;;;;11.00;5.67;;;;;;;28.53;100.00;101543.06;5057489;28;19917;-50
2022/05/19 07:26:09;;;;;;;7.22;5.43;;;;;;;28.51;100.00;101542.56;5065661;28;20037;-54
2022/05/19 07:28:35;;;;;;;9.68;5.93;;;;;;;29.80;88.63;101546.72;5058342;28;20045;-54
2022/05/19 07:31:00;;;;;;;11.07;5.20;;;;;;;28.99;96.22;101546.94;5063852;28;20037;-50
2022/05/19 07:33:28;;;;;;;19.52;11.27;;;;;;;29.76;88.69;101543.78;5059016;28;20032;-51
2022/05/19 07:35:54;;;;;;;9.03;5.00;;;;;;;30.03;84.00;101542.09;5063265;28;20121;-55
2022/05/19 07:38:20;;;;;;;11.13;5.27;;;;;;;30.33;80.21;101534.22;5055155;28;20060;-55
2022/05/19 07:40:46;;;;;;;11.30;5.75;;;;;;;30.39;81.06;101537.66;5056383;28;20037;-53
2022/05/19 07:45:57;;;;;;;8.40;5.37;;;;;;;30.63;78.13;101542.84;5057794;28;20460;-50
2022/05/19 07:48:23;;;;;;;17.17;5.30;;;;;;;30.72;76.56;101526.34;5063526;28;20041;-53
2022/05/19 07:50:48;;;;;;;;;;;;;;;31.04;74.40;101530.72;5062237;28;20045;-51
2022/05/19 07:53:14;;;;;;;13.03;7.60;;;;;;;31.44;72.07;101532.66;5062915;28;19918;-52
2022/05/19 07:55:39;;;;;;;;;;;;;;;31.63;69.93;101533.50;5054281;28;20033;-52
2022/05/19 07:58:05;;;;;;;17.27;6.80;;;;;;;31.82;69.38;101528.50;5059360;28;19920;-52
2022/05/19 08:00:30;;;;;;;13.48;7.65;;;;;;;33.11;64.27;101533.63;5053902;28;20039;-54
2022/05/19 08:02:56;;;;;;;;;;;;;;;31.66;69.85;101541.16;5057909;28;20049;-50
2022/05/19 08:05:21;;;;;;;22.13;11.67;;;;;;;31.86;69.54;101540.56;5055998;28;19913;-54
2022/05/19 08:07:47;;;;;;;20.93;13.23;;;;;;;31.90;71.44;101549.81;5058447;28;20044;-55
2022/05/19 08:10:25;;;;;;;;;;;;;;;31.00;73.30;101539.94;5061737;28;20037;-56
2022/05/19 08:15:42;;;;;;;12.67;6.03;;;;;;;31.00;76.00;101545.47;5054746;28;20128;-50
2022/05/19 08:18:17;;;;;;;10.43;6.13;;;;;;;31.74;71.25;101551.41;5054573;28;20108;-53
2022/05/19 08:20:51;;;;;;;17.80;10.83;;;;;;;31.28;74.31;101551.63;5065971;28;20037;-54
2022/05/19 08:23:23;;;;;;;21.27;11.43;;;;;;;30.29;82.53;101549.75;5051877;28;20025;-52
2022/05/19 08:25:49;;;;;;;11.73;6.90;;;;;;;30.88;76.17;101546.06;5058965;28;20059;-53
2022/05/19 08:28:17;;;;;;;15.27;7.97;;;;;;;30.72;79.90;101543.75;5054093;28;20064;-52
2022/05/19 08:30:47;;;;;;;12.67;7.03;;;;;;;30.66;81.53;101544.19;5054799;28;20167;-52
2022/05/19 08:33:15;;;;;;;13.90;8.70;;;;;;;30.99;78.50;101544.69;5047800;28;20034;-51
2022/05/19 08:35:40;;;;;;;17.37;7.17;;;;;;;31.43;76.73;101549.56;5053323;28;20037;-52
2022/05/19 08:38:06;;;;;;;;;;;;;;;31.63;74.50;101547.31;5054668;28;20034;-50
2022/05/19 08:40:41;;;;;;;11.37;7.57;;;;;;;31.85;73.41;101540.88;5053371;28;19984;-52
2022/05/19 08:43:10;;;;;;;12.43;7.45;;;;;;;31.75;71.67;101534.50;5054119;28;20097;-52
2022/05/19 08:45:41;;;;;;;9.97;7.47;;;;;;;32.32;67.51;101531.91;5054636;28;20037;-54
2022/05/19 08:48:12;;;;;;;11.67;8.20;;;;;;;32.05;65.73;101528.31;5057362;28;20061;-48
2022/05/19 08:50:59;;;;;;;13.37;7.77;;;;;;;32.63;66.78;101521.75;5057751;28;20167;-51
2022/05/19 08:53:29;;;;;;;12.05;7.97;;;;;;;33.08;63.10;101517.69;5057560;28;20061;-53
2022/05/19 08:56:00;;;;;;;23.27;8.43;;;;;;;32.85;64.24;101517.94;5057679;28;20064;-54
2022/05/19 08:58:43;;;;;;;10.33;7.77;;;;;;;32.95;62.21;101520.34;5057653;28;20037;-53
2022/05/19 09:01:21;;;;;;;13.07;8.20;;;;;;;33.37;61.55;101519.66;5057377;28;20049;-52
2022/05/19 09:03:49;;;;;;;11.17;6.67;;;;;;;33.41;59.72;101526.13;5057075;28;20040;-52
2022/05/19 09:06:34;;;;;;;10.63;7.33;;;;;;;33.71;57.88;101523.34;5061883;28;20032;-53
2022/05/19 09:09:22;;;;;;;13.87;7.83;;;;;;;33.94;56.78;101525.75;5057342;28;20033;-54
2022/05/19 09:11:54;;;;;;;10.32;7.50;;;;;;;34.18;55.94;101541.75;5057248;28;20033;-54
2022/05/19 09:14:22;;;;;;;12.40;7.60;;;;;;;34.47;55.36;101531.63;5057277;28;20025;-52
2022/05/19 09:16:49;;;;;;;12.30;7.15;;;;;;;34.82;51.94;101543.50;5056803;28;20026;-54
2022/05/19 09:19:36;;;;;;;13.02;8.02;;;;;;;35.26;49.77;101557.69;5057104;28;20091;-53
2022/05/19 09:22:07;;;;;;;16.13;7.28;;;;;;;34.91;49.62;101548.97;5054311;28;20037;-52
2022/05/19 09:24:33;;;;;;;12.60;7.50;;;;;;;35.05;49.15;101555.03;5055637;28;20381;-52
2022/05/19 09:27:00;;;;;;;10.68;7.45;;;;;;;35.27;47.68;101556.50;5057443;28;20026;-54
2022/05/19 09:29:41;;;;;;;15.05;8.93;;;;;;;34.70;48.50;101545.13;5056660;28;20048;-52
2022/05/19 09:32:29;;;;;;;14.77;7.60;;;;;;;34.89;48.07;101552.09;5068095;28;20033;-54
2022/05/19 09:35:10;;;;;;;13.02;8.07;;;;;;;34.44;49.37;101556.50;5068520;28;20047;-53
2022/05/19 09:37:43;;;;;;;10.63;8.05;;;;;;;34.95;47.18;101564.59;5063928;28;20037;-55
2022/05/19 09:40:08;;;;;;;12.40;8.68;;;;;;;34.91;46.96;101560.91;5071734;28;20029;-50
2022/05/19 09:42:36;;;;;;;14.15;8.63;;;;;;;34.99;45.93;101573.06;5065978;28;20028;-54
2022/05/19 09:45:03;;;;;;;12.93;8.80;;;;;;;34.88;45.17;101576.28;5068449;28;20093;-53
2022/05/19 09:47:35;;;;;;;10.60;9.00;;;;;;;34.66;45.30;101577.53;5062615;28;20036;-54
2022/05/19 09:50:10;;;;;;;11.95;8.90;;;;;;;35.51;44.84;101574.34;5056798;28;20049;-55
2022/05/19 09:52:40;;;;;;;13.15;9.50;;;;;;;36.45;42.79;101563.19;5056534;28;20033;-52
2022/05/19 09:55:08;;;;;;;10.68;8.65;;;;;;;37.61;41.14;101570.00;5057773;28;20041;-51
2022/05/19 09:57:37;;;;;;;12.40;8.57;;;;;;;38.54;37.69;101576.66;5056522;28;20044;-53
2022/05/19 10:00:15;;;;;;;12.52;7.75;;;;;;;39.03;37.17;101567.91;5061776;28;20033;-51
2022/05/19 10:02:46;;;;;;;11.57;8.38;;;;;;;39.50;34.87;101563.81;5062088;28;20025;-53
2022/05/19 10:05:42;;;;;;;11.85;8.43;;;;;;;39.85;35.44;101562.69;5064105;28;20164;-53
2022/05/19 10:08:23;;;;;;;9.98;6.78;;;;;;;40.30;34.24;101553.59;5063909;28;20052;-52
2022/05/19 10:11:28;;;;;;;9.57;6.80;;;;;;;40.79;33.10;101539.63;5064737;28;20037;-51
2022/05/19 10:14:06;;;;;;;13.07;7.15;;;;;;;41.32;32.45;101543.22;5061239;28;20021;-54
2022/05/19 10:16:37;;;;;;;9.27;7.45;;;;;;;41.54;31.01;101527.28;5049560;28;20037;-50
2022/05/19 10:19:12;;;;;;;10.77;8.13;;;;;;;41.75;30.91;101520.94;5062226;28;20101;-54
2022/05/19 10:22:00;;;;;;;9.57;7.43;;;;;;;42.23;30.64;101516.28;5055564;28;20053;-52
2022/05/19 10:24:40;;;;;;;26.80;16.75;;;;;;;42.26;29.65;101505.03;5059560;28;20120;-52
2022/05/19 10:33:53;;;;;;;9.75;6.65;;;;;;;42.82;28.15;101501.00;5067744;28;20036;-58
2022/05/19 10:36:34;;;;;;;14.52;7.43;;;;;;;41.84;28.71;101484.91;5068066;28;20044;-55
2022/05/19 10:39:21;;;;;;;19.02;11.20;;;;;;;41.24;29.24;101473.03;5062848;28;20044;-56
2022/05/19 10:41:51;;;;;;;10.70;6.90;;;;;;;40.00;29.99;101481.66;5066162;28;20030;-54
2022/05/19 10:44:42;;;;;;;10.07;6.05;;;;;;;39.29;31.47;101492.38;5067575;28;20037;-55
2022/05/19 10:47:38;;;;;;;13.23;7.78;;;;;;;39.24;33.23;101487.13;5056661;28;20042;-54
2022/05/19 10:50:35;;;;;;;7.68;5.28;;;;;;;38.36;33.71;101500.91;5063382;28;20109;-53
2022/05/19 10:53:49;;;;;;;10.68;4.80;;;;;;;37.71;33.91;101506.03;5054934;28;20045;-55
2022/05/19 10:56:17;;;;;;;8.82;4.45;;;;;;;37.21;33.89;101491.81;5061723;28;20163;-55
2022/05/19 10:59:21;;;;;;;50.08;30.90;;;;;;;36.66;34.96;101503.63;5055380;28;20162;-53
2022/05/19 11:02:03;;;;;;;12.02;5.43;;;;;;;36.45;35.33;101490.78;5056804;28;20030;-54
2022/05/19 11:04:41;;;;;;;17.17;7.97;;;;;;;37.29;35.15;101495.56;5055029;28;20177;-54
2022/05/19 11:07:41;;;;;;;16.02;9.52;;;;;;;36.69;35.90;101493.75;5054870;28;20068;-54
2022/05/19 11:10:12;;;;;;;17.90;10.07;;;;;;;37.35;35.82;101488.53;5053629;28;20036;-56
2022/05/19 11:13:03;;;;;;;8.25;5.20;;;;;;;37.38;34.71;101481.41;5056122;28;20071;-54
2022/05/19 11:16:01;;;;;;;8.50;4.95;;;;;;;37.34;34.78;101478.53;5054457;28;20037;-56
2022/05/19 11:18:36;;;;;;;9.70;5.78;;;;;;;37.20;35.23;101479.03;5055435;28;20071;-55
2022/05/19 11:21:20;;;;;;;9.70;6.22;;;;;;;36.94;34.95;101472.06;5055049;28;20037;-55
2022/05/19 11:23:51;;;;;;;10.40;5.95;;;;;;;36.57;35.66;101472.38;5054356;28;20037;-53
2022/05/19 11:26:45;;;;;;;11.45;6.18;;;;;;;36.49;35.64;101476.91;5055148;28;20033;-56
2022/05/19 11:29:23;;;;;;;15.35;5.95;;;;;;;36.32;36.01;101486.44;5054358;28;20044;-54
2022/05/19 11:31:59;;;;;;;8.98;5.15;;;;;;;35.28;37.00;101480.31;5051438;28;20043;-54
2022/05/19 11:34:37;;;;;;;11.88;5.45;;;;;;;34.93;38.40;101468.84;5052846;28;20064;-56
2022/05/19 11:37:17;;;;;;;13.00;5.28;;;;;;;35.69;38.72;101452.53;5064511;28;20065;-54
2022/05/19 11:39:59;;;;;;;11.70;5.07;;;;;;;35.65;38.76;101451.63;5057032;28;20029;-53
2022/05/19 11:42:50;;;;;;;7.10;4.53;;;;;;;35.49;38.93;101447.94;5060376;28;20033;-56
2022/05/19 11:45:40;;;;;;;8.57;5.00;;;;;;;35.40;39.04;101445.31;5053371;28;20095;-55
2022/05/19 11:56:51;;;;;;;53.27;5.33;;;;;;;49.48;100.00;102147.94;5055350;28;20048;-54
2022/05/19 11:59:17;;;;;;;165.73;8.90;;;;;;;-147.27;100.00;65176.34;5052639;28;20079;-59